Řízení letového provozu České republiky  
Aktualizace dat:  30.07.2014 13:06:16 UTC English version
   METEO Zobrazení stránky:  30.07.2014 13:06:23 UTC  
vysvětlivky
METAR EDDB 301250Z 20005KT 9999 SCT030 SCT130 27/19 Q1006 NOSIG=
METAR EDDC 301250Z 29005KT 250V310 9999 SCT020 BKN034 23/18 Q1008 NOSIG=
METAR EDDE 301250Z 32009KT 9999 -SHRA FEW010 SCT013CB BKN026 20/17 Q1010 NOSIG=
METAR EDDF 301250Z 36009KT 9999 FEW018 SCT025 BKN040 22/17 Q1011 NOSIG=
METAR EDDM 301250Z 25006KT 9000 -SHRA SCT013TCU BKN018 20/18 Q1009 RERA TEMPO 4000 SHRA BKN012TCU=
METAR EDDN 301250Z VRB05KT 9999 FEW023TCU BKN270 24/18 Q1008 TEMPO 4000 SHRADZ BKN012CB=
METAR EDDP 301250Z 33008KT 9999 SCT015 BKN035 21/19 Q1009 NOSIG=
METAR EDDT 301250Z 29006KT 9999 FEW023CB BKN150 25/19 Q1007 TEMPO TSRA=
METAR EDQM 301250Z 36006KT 290V100 9999 FEW020 SCT025 BKN041 23/15 Q1010=
METAR EPBY 301300Z 15008KT 090V190 9999 SCT070TCU 31/13 Q1006 =
METAR EPGD 301300Z 14009KT 090V180 CAVOK 30/15 Q1006 =
METAR EPKK 301300Z 09004KT 040V140 9999 FEW050 29/15 Q1009 =
METAR EPKT 301300Z 16008KT 120V230 9999 FEW040 28/16 Q1009 =
METAR EPLL 301300Z 18009KT 9999 SCT044 28/17 Q1007 =
METAR EPPO 301300Z 17008KT 130V210 CAVOK 30/16 Q1006 WS R10 =
METAR EPRZ 301300Z 13006KT 9999 BKN040TCU 27/18 Q1010 =
METAR EPWA 301300Z 17009KT 140V210 9999 SCT043TCU 28/18 Q1009 NOSIG=
METAR EPWR 301300Z 17006KT 110V220 CAVOK 30/18 Q1007 =
METAR LHBP 301300Z 09016KT 9999 SCT035 SCT100 27/20 Q1008 NOSIG=
METAR LHSM 301245Z 12006KT 9999 SCT033TCU BKN200 28/20 Q1006 NOSIG=
METAR LKCV 301300Z 12005KT 050V190 9999 SCT033 BKN210 25/17 Q1007 NOSIG=
METAR LKKB 301300Z VRB02KT 9999 BKN040 26/17 Q1007 NOSIG=
METAR LKKU NIL
METAR LKKV 301300Z 07005KT 9999 -SHRA FEW020CB SCT023 19/17 Q1010 RMK REG QNH 1004=
METAR LKLN 301300Z AUTO 30005KT 220V360 9999 SCT029 SCT039 24/18 Q1008=
METAR LKMT 301300Z 20009KT 150V230 9999 FEW045 28/18 Q1008 NOSIG RMK REG QNH 1004=
METAR LKNA 301300Z 14008KT 070V210 9999 SCT034 BKN090 26/17 Q1008 NOSIG=
METAR LKPD 301300Z 20009KT 160V270 9999 SCT031 BKN200 26/18 Q1007 NOSIG=
METAR LKPR 301300Z 34006KT 320V100 9999 FEW035 24/19 Q1008 NOSIG RMK REG QNH 1004=
METAR LKTB 301300Z VRB04KT CAVOK 27/18 Q1008 TEMPO TSRA RMK REG QNH 1004=
METAR LKVO 301300Z 02003KT 9999 FEW041 SCT049 25/17 Q1007=
METAR LOWI 301250Z 28005KT 250V320 9999 RA FEW007 SCT028 BKN060 18/15 Q1011 NOSIG=
METAR LOWL 301250Z 27004KT 9999 FEW020 SCT028 BKN250 23/17 Q1008 NOSIG=
METAR LOWS 301250Z VRB01KT 9999 -RA FEW005 SCT008 BKN028 19/17 Q1009 NOSIG=
METAR LOWW 301250Z 12006KT 090V150 9999 VCTS FEW030CB SCT040 BKN100 22/18 Q1007 NOSIG=
METAR LZIB 301300Z 27009KT 220V300 7000 1000S +TSRA SCT005 BKN030CB 22/20 Q1008 TEMPO VRB15G25KT=
METAR LZKZ 301300Z 02008KT 9999 -SHRA FEW030CB SCT035 23/20 Q1010 TEMPO SHRA=
METAR LZPP 301300Z 13009KT 9999 FEW040 BKN100 27/18 Q1008=
METAR LZSL 301300Z 12005KT 070V170 9999 FEW037 BKN100 26/18 Q1010=
METAR LZTT 301300Z 17006KT 140V230 9999 SCT050 23/16 Q1012 NOSIG=
METAR LZZI 301300Z VRB02KT 9999 BKN043 26/17 Q1009=